sensor_id;sensor_type;location;lat;lon;timestamp;temperature;humidity
48686;DHT22;34485;51.536;3.816;2022-09-30T00:01:40;8.00;99.90
48686;DHT22;34485;51.536;3.816;2022-09-30T00:04:09;8.00;99.90
48686;DHT22;34485;51.536;3.816;2022-09-30T00:06:37;8.00;99.90
48686;DHT22;34485;51.536;3.816;2022-09-30T00:09:04;8.00;99.90
48686;DHT22;34485;51.536;3.816;2022-09-30T00:11:31;8.00;99.90
48686;DHT22;34485;51.536;3.816;2022-09-30T00:13:59;8.00;99.90
48686;DHT22;34485;51.536;3.816;2022-09-30T00:16:27;8.00;99.90
48686;DHT22;34485;51.536;3.816;2022-09-30T00:18:55;8.00;99.90
48686;DHT22;34485;51.536;3.816;2022-09-30T00:21:22;8.00;99.90
48686;DHT22;34485;51.536;3.816;2022-09-30T00:23:48;8.00;99.90
48686;DHT22;34485;51.536;3.816;2022-09-30T00:26:17;8.00;99.90
48686;DHT22;34485;51.536;3.816;2022-09-30T00:28:43;7.90;99.90
48686;DHT22;34485;51.536;3.816;2022-09-30T00:31:14;8.00;99.90
48686;DHT22;34485;51.536;3.816;2022-09-30T00:33:41;7.90;99.90
48686;DHT22;34485;51.536;3.816;2022-09-30T00:36:07;7.90;99.90
48686;DHT22;34485;51.536;3.816;2022-09-30T00:38:33;7.90;99.90
48686;DHT22;34485;51.536;3.816;2022-09-30T00:41:00;7.90;99.90
48686;DHT22;34485;51.536;3.816;2022-09-30T00:43:45;7.90;99.90
48686;DHT22;34485;51.536;3.816;2022-09-30T00:46:28;7.90;99.90
48686;DHT22;34485;51.536;3.816;2022-09-30T00:48:57;7.80;99.90
48686;DHT22;34485;51.536;3.816;2022-09-30T00:51:48;7.80;99.90
48686;DHT22;34485;51.536;3.816;2022-09-30T00:54:19;7.80;99.90
48686;DHT22;34485;51.536;3.816;2022-09-30T00:56:50;7.80;99.90
48686;DHT22;34485;51.536;3.816;2022-09-30T00:59:26;7.80;99.90
48686;DHT22;34485;51.536;3.816;2022-09-30T01:01:54;7.70;99.90
48686;DHT22;34485;51.536;3.816;2022-09-30T01:04:24;7.70;99.90
48686;DHT22;34485;51.536;3.816;2022-09-30T01:06:50;7.70;99.90
48686;DHT22;34485;51.536;3.816;2022-09-30T01:09:17;7.70;99.90
48686;DHT22;34485;51.536;3.816;2022-09-30T01:11:44;7.70;99.90
48686;DHT22;34485;51.536;3.816;2022-09-30T01:14:12;7.70;99.90
48686;DHT22;34485;51.536;3.816;2022-09-30T01:24:37;7.70;99.90
48686;DHT22;34485;51.536;3.816;2022-09-30T01:29:57;7.50;99.90
48686;DHT22;34485;51.536;3.816;2022-09-30T01:37:55;7.50;99.90
48686;DHT22;34485;51.536;3.816;2022-09-30T01:41:30;7.40;99.90
48686;DHT22;34485;51.536;3.816;2022-09-30T01:49:31;7.50;99.90
48686;DHT22;34485;51.536;3.816;2022-09-30T01:52:17;7.50;99.90
48686;DHT22;34485;51.536;3.816;2022-09-30T01:54:54;7.50;99.90
48686;DHT22;34485;51.536;3.816;2022-09-30T01:57:41;7.50;99.90
48686;DHT22;34485;51.536;3.816;2022-09-30T02:00:10;7.50;99.90
48686;DHT22;34485;51.536;3.816;2022-09-30T02:02:52;7.50;99.90
48686;DHT22;34485;51.536;3.816;2022-09-30T02:08:41;7.50;99.90
48686;DHT22;34485;51.536;3.816;2022-09-30T02:13:57;7.50;99.90
48686;DHT22;34485;51.536;3.816;2022-09-30T02:16:41;7.50;99.90
48686;DHT22;34485;51.536;3.816;2022-09-30T02:19:22;7.50;99.90
48686;DHT22;34485;51.536;3.816;2022-09-30T02:21:55;7.50;99.90
48686;DHT22;34485;51.536;3.816;2022-09-30T02:24:24;7.50;99.90
48686;DHT22;34485;51.536;3.816;2022-09-30T02:26:52;7.50;99.90
48686;DHT22;34485;51.536;3.816;2022-09-30T02:29:26;7.50;99.90
48686;DHT22;34485;51.536;3.816;2022-09-30T02:31:57;7.50;99.90
48686;DHT22;34485;51.536;3.816;2022-09-30T02:34:30;7.50;99.90
48686;DHT22;34485;51.536;3.816;2022-09-30T02:37:09;7.50;99.90
48686;DHT22;34485;51.536;3.816;2022-09-30T02:39:59;7.50;99.90
48686;DHT22;34485;51.536;3.816;2022-09-30T02:42:29;7.60;99.90
48686;DHT22;34485;51.536;3.816;2022-09-30T02:45:03;7.60;99.90
48686;DHT22;34485;51.536;3.816;2022-09-30T02:53:15;7.60;99.90
48686;DHT22;34485;51.536;3.816;2022-09-30T02:58:33;7.70;99.90
48686;DHT22;34485;51.536;3.816;2022-09-30T03:01:05;7.70;99.90
48686;DHT22;34485;51.536;3.816;2022-09-30T03:03:36;7.70;99.90
48686;DHT22;34485;51.536;3.816;2022-09-30T03:06:03;7.70;99.90
48686;DHT22;34485;51.536;3.816;2022-09-30T03:08:29;7.70;99.90
48686;DHT22;34485;51.536;3.816;2022-09-30T03:10:55;7.60;99.90
48686;DHT22;34485;51.536;3.816;2022-09-30T03:14:02;7.60;99.90
48686;DHT22;34485;51.536;3.816;2022-09-30T03:17:12;7.60;99.90
48686;DHT22;34485;51.536;3.816;2022-09-30T03:23:17;7.40;99.90
48686;DHT22;34485;51.536;3.816;2022-09-30T03:28:33;7.40;99.90
48686;DHT22;34485;51.536;3.816;2022-09-30T03:31:16;7.30;99.90
48686;DHT22;34485;51.536;3.816;2022-09-30T03:36:45;7.30;99.90
48686;DHT22;34485;51.536;3.816;2022-09-30T03:41:58;7.30;99.90
48686;DHT22;34485;51.536;3.816;2022-09-30T03:44:51;7.40;99.90
48686;DHT22;34485;51.536;3.816;2022-09-30T03:47:21;7.40;99.90
48686;DHT22;34485;51.536;3.816;2022-09-30T03:49:52;7.50;99.90
48686;DHT22;34485;51.536;3.816;2022-09-30T03:52:20;7.50;99.90
48686;DHT22;34485;51.536;3.816;2022-09-30T03:57:17;7.50;99.90
48686;DHT22;34485;51.536;3.816;2022-09-30T03:59:43;7.60;99.90
48686;DHT22;34485;51.536;3.816;2022-09-30T04:02:10;7.60;99.90
48686;DHT22;34485;51.536;3.816;2022-09-30T04:04:38;7.60;99.90
48686;DHT22;34485;51.536;3.816;2022-09-30T04:07:05;7.50;99.90
48686;DHT22;34485;51.536;3.816;2022-09-30T04:09:33;7.50;99.90
48686;DHT22;34485;51.536;3.816;2022-09-30T04:11:59;7.50;99.90
48686;DHT22;34485;51.536;3.816;2022-09-30T04:14:25;7.60;99.90
48686;DHT22;34485;51.536;3.816;2022-09-30T04:16:50;7.50;99.90
48686;DHT22;34485;51.536;3.816;2022-09-30T04:19:16;7.50;99.90
48686;DHT22;34485;51.536;3.816;2022-09-30T04:21:42;7.40;99.90
48686;DHT22;34485;51.536;3.816;2022-09-30T04:24:07;7.50;99.90
48686;DHT22;34485;51.536;3.816;2022-09-30T04:26:33;7.50;99.90
48686;DHT22;34485;51.536;3.816;2022-09-30T04:28:58;7.50;99.90
48686;DHT22;34485;51.536;3.816;2022-09-30T04:31:24;7.50;99.90
48686;DHT22;34485;51.536;3.816;2022-09-30T04:33:50;7.50;99.90
48686;DHT22;34485;51.536;3.816;2022-09-30T04:36:16;7.50;99.90
48686;DHT22;34485;51.536;3.816;2022-09-30T04:38:42;7.50;99.90
48686;DHT22;34485;51.536;3.816;2022-09-30T04:41:12;7.50;99.90
48686;DHT22;34485;51.536;3.816;2022-09-30T04:43:41;7.50;99.90
48686;DHT22;34485;51.536;3.816;2022-09-30T04:46:09;7.60;99.90
48686;DHT22;34485;51.536;3.816;2022-09-30T04:48:35;7.60;99.90
48686;DHT22;34485;51.536;3.816;2022-09-30T04:51:00;7.60;99.90
48686;DHT22;34485;51.536;3.816;2022-09-30T04:53:26;7.60;99.90
48686;DHT22;34485;51.536;3.816;2022-09-30T04:56:00;7.50;99.90
48686;DHT22;34485;51.536;3.816;2022-09-30T04:58:27;7.60;99.90
48686;DHT22;34485;51.536;3.816;2022-09-30T05:01:04;7.60;99.90
48686;DHT22;34485;51.536;3.816;2022-09-30T05:03:30;7.60;99.90
48686;DHT22;34485;51.536;3.816;2022-09-30T05:05:56;7.60;99.90
48686;DHT22;34485;51.536;3.816;2022-09-30T05:08:21;7.60;99.90
48686;DHT22;34485;51.536;3.816;2022-09-30T05:10:58;7.60;99.90
48686;DHT22;34485;51.536;3.816;2022-09-30T05:13:25;7.60;99.90
48686;DHT22;34485;51.536;3.816;2022-09-30T05:15:53;7.70;99.90
48686;DHT22;34485;51.536;3.816;2022-09-30T05:18:19;7.80;99.90
48686;DHT22;34485;51.536;3.816;2022-09-30T05:20:48;7.90;99.90
48686;DHT22;34485;51.536;3.816;2022-09-30T05:23:13;8.00;99.90
48686;DHT22;34485;51.536;3.816;2022-09-30T05:25:39;8.10;99.90
48686;DHT22;34485;51.536;3.816;2022-09-30T05:28:04;8.20;99.90
48686;DHT22;34485;51.536;3.816;2022-09-30T05:30:30;8.30;99.90
48686;DHT22;34485;51.536;3.816;2022-09-30T05:32:56;8.30;99.90
48686;DHT22;34485;51.536;3.816;2022-09-30T05:35:21;8.30;99.90
48686;DHT22;34485;51.536;3.816;2022-09-30T05:37:47;8.30;99.90
48686;DHT22;34485;51.536;3.816;2022-09-30T05:40:13;8.20;99.90
48686;DHT22;34485;51.536;3.816;2022-09-30T05:42:38;8.20;99.90
48686;DHT22;34485;51.536;3.816;2022-09-30T05:45:04;8.20;99.90
48686;DHT22;34485;51.536;3.816;2022-09-30T05:47:32;8.10;99.90
48686;DHT22;34485;51.536;3.816;2022-09-30T05:49:57;8.00;99.90
48686;DHT22;34485;51.536;3.816;2022-09-30T05:52:23;7.90;99.90
48686;DHT22;34485;51.536;3.816;2022-09-30T05:54:49;7.80;99.90
48686;DHT22;34485;51.536;3.816;2022-09-30T05:57:15;7.80;99.90
48686;DHT22;34485;51.536;3.816;2022-09-30T05:59:42;7.70;99.90
48686;DHT22;34485;51.536;3.816;2022-09-30T06:02:08;7.70;99.90
48686;DHT22;34485;51.536;3.816;2022-09-30T06:04:34;7.70;99.90
48686;DHT22;34485;51.536;3.816;2022-09-30T06:07:00;7.80;99.90
48686;DHT22;34485;51.536;3.816;2022-09-30T06:09:25;7.90;99.90
48686;DHT22;34485;51.536;3.816;2022-09-30T06:11:51;8.00;99.90
48686;DHT22;34485;51.536;3.816;2022-09-30T06:14:17;8.00;99.90
48686;DHT22;34485;51.536;3.816;2022-09-30T06:16:44;8.00;99.90
48686;DHT22;34485;51.536;3.816;2022-09-30T06:19:10;8.10;99.90
48686;DHT22;34485;51.536;3.816;2022-09-30T06:21:36;8.20;99.90
48686;DHT22;34485;51.536;3.816;2022-09-30T06:24:01;8.30;99.90
48686;DHT22;34485;51.536;3.816;2022-09-30T06:26:27;8.40;99.90
48686;DHT22;34485;51.536;3.816;2022-09-30T06:28:53;8.60;99.90
48686;DHT22;34485;51.536;3.816;2022-09-30T06:31:19;8.70;99.90
48686;DHT22;34485;51.536;3.816;2022-09-30T06:33:44;8.80;99.90
48686;DHT22;34485;51.536;3.816;2022-09-30T06:36:11;8.90;99.90
48686;DHT22;34485;51.536;3.816;2022-09-30T06:41:04;9.10;99.90
48686;DHT22;34485;51.536;3.816;2022-09-30T06:43:30;9.10;99.90
48686;DHT22;34485;51.536;3.816;2022-09-30T06:45:56;9.10;99.90
48686;DHT22;34485;51.536;3.816;2022-09-30T06:48:21;9.20;99.90
48686;DHT22;34485;51.536;3.816;2022-09-30T06:50:47;9.30;99.90
48686;DHT22;34485;51.536;3.816;2022-09-30T06:53:13;9.30;99.90
48686;DHT22;34485;51.536;3.816;2022-09-30T06:55:39;9.40;99.90
48686;DHT22;34485;51.536;3.816;2022-09-30T06:58:13;9.50;99.90
48686;DHT22;34485;51.536;3.816;2022-09-30T07:00:39;9.60;99.90
48686;DHT22;34485;51.536;3.816;2022-09-30T07:03:05;9.70;99.90
48686;DHT22;34485;51.536;3.816;2022-09-30T07:05:35;9.80;99.90
48686;DHT22;34485;51.536;3.816;2022-09-30T07:08:00;10.00;99.90
48686;DHT22;34485;51.536;3.816;2022-09-30T07:10:26;10.00;99.90
48686;DHT22;34485;51.536;3.816;2022-09-30T07:12:52;10.10;99.90
48686;DHT22;34485;51.536;3.816;2022-09-30T07:18:06;10.30;99.90
48686;DHT22;34485;51.536;3.816;2022-09-30T07:20:32;10.40;99.90
48686;DHT22;34485;51.536;3.816;2022-09-30T07:22:57;10.50;99.90
48686;DHT22;34485;51.536;3.816;2022-09-30T07:25:24;10.60;99.90
48686;DHT22;34485;51.536;3.816;2022-09-30T07:30:15;10.80;99.90
48686;DHT22;34485;51.536;3.816;2022-09-30T07:32:42;10.90;99.90
48686;DHT22;34485;51.536;3.816;2022-09-30T07:35:08;11.00;99.90
48686;DHT22;34485;51.536;3.816;2022-09-30T07:37:34;11.10;99.90
48686;DHT22;34485;51.536;3.816;2022-09-30T07:40:04;11.20;99.90
48686;DHT22;34485;51.536;3.816;2022-09-30T07:42:30;11.30;99.90
48686;DHT22;34485;51.536;3.816;2022-09-30T07:44:56;11.40;99.90
48686;DHT22;34485;51.536;3.816;2022-09-30T07:47:22;11.70;99.90
48686;DHT22;34485;51.536;3.816;2022-09-30T07:49:48;12.00;99.90
48686;DHT22;34485;51.536;3.816;2022-09-30T07:52:14;12.50;99.90
48686;DHT22;34485;51.536;3.816;2022-09-30T07:54:41;13.00;99.90
48686;DHT22;34485;51.536;3.816;2022-09-30T07:57:08;13.50;99.90
48686;DHT22;34485;51.536;3.816;2022-09-30T07:59:37;13.90;99.90
48686;DHT22;34485;51.536;3.816;2022-09-30T08:02:04;14.50;99.90
48686;DHT22;34485;51.536;3.816;2022-09-30T08:06:59;17.10;99.90
48686;DHT22;34485;51.536;3.816;2022-09-30T08:09:27;17.30;99.90
48686;DHT22;34485;51.536;3.816;2022-09-30T08:11:53;18.30;98.40
48686;DHT22;34485;51.536;3.816;2022-09-30T08:19:20;20.90;87.10
48686;DHT22;34485;51.536;3.816;2022-09-30T08:21:47;21.80;78.30
48686;DHT22;34485;51.536;3.816;2022-09-30T08:24:13;22.30;66.70
48686;DHT22;34485;51.536;3.816;2022-09-30T08:29:06;23.30;61.90
48686;DHT22;34485;51.536;3.816;2022-09-30T08:31:32;23.70;78.40
48686;DHT22;34485;51.536;3.816;2022-09-30T08:36:26;24.40;55.50
48686;DHT22;34485;51.536;3.816;2022-09-30T08:38:53;24.70;53.90
48686;DHT22;34485;51.536;3.816;2022-09-30T08:52:17;26.20;49.40
48686;DHT22;34485;51.536;3.816;2022-09-30T08:54:47;26.20;47.50
48686;DHT22;34485;51.536;3.816;2022-09-30T08:59:54;25.80;99.90
48686;DHT22;34485;51.536;3.816;2022-09-30T09:02:33;26.00;49.70
48686;DHT22;34485;51.536;3.816;2022-09-30T09:05:04;26.30;48.10
48686;DHT22;34485;51.536;3.816;2022-09-30T09:10:40;26.60;46.70
48686;DHT22;34485;51.536;3.816;2022-09-30T09:16:18;26.70;47.80
48686;DHT22;34485;51.536;3.816;2022-09-30T09:24:24;26.70;45.90
48686;DHT22;34485;51.536;3.816;2022-09-30T09:26:53;26.80;48.10
48686;DHT22;34485;51.536;3.816;2022-09-30T09:31:45;26.30;47.10
48686;DHT22;34485;51.536;3.816;2022-09-30T09:34:12;26.30;51.70
48686;DHT22;34485;51.536;3.816;2022-09-30T09:39:26;26.80;95.50
48686;DHT22;34485;51.536;3.816;2022-09-30T09:45:03;26.70;46.60
48686;DHT22;34485;51.536;3.816;2022-09-30T09:47:30;26.60;45.60
48686;DHT22;34485;51.536;3.816;2022-09-30T09:49:58;26.70;46.50
48686;DHT22;34485;51.536;3.816;2022-09-30T09:54:56;26.20;46.30
48686;DHT22;34485;51.536;3.816;2022-09-30T09:57:24;26.20;47.10
48686;DHT22;34485;51.536;3.816;2022-09-30T10:00:38;26.00;47.80
48686;DHT22;34485;51.536;3.816;2022-09-30T10:03:19;26.00;49.10
48686;DHT22;34485;51.536;3.816;2022-09-30T10:06:12;25.80;48.00
48686;DHT22;34485;51.536;3.816;2022-09-30T10:08:39;25.40;47.10
48686;DHT22;34485;51.536;3.816;2022-09-30T10:11:20;25.50;48.90
48686;DHT22;34485;51.536;3.816;2022-09-30T10:13:46;25.50;49.60
48686;DHT22;34485;51.536;3.816;2022-09-30T10:16:30;25.50;47.20
48686;DHT22;34485;51.536;3.816;2022-09-30T10:18:57;25.20;48.90
48686;DHT22;34485;51.536;3.816;2022-09-30T10:21:25;25.20;49.90
48686;DHT22;34485;51.536;3.816;2022-09-30T10:23:51;25.40;48.10
48686;DHT22;34485;51.536;3.816;2022-09-30T10:26:27;25.60;47.70
48686;DHT22;34485;51.536;3.816;2022-09-30T10:33:49;25.00;46.90
48686;DHT22;34485;51.536;3.816;2022-09-30T10:36:19;25.10;46.80
48686;DHT22;34485;51.536;3.816;2022-09-30T10:38:59;25.00;47.00
48686;DHT22;34485;51.536;3.816;2022-09-30T10:41:28;24.50;48.80
48686;DHT22;34485;51.536;3.816;2022-09-30T10:43:57;24.70;49.00
48686;DHT22;34485;51.536;3.816;2022-09-30T10:46:30;25.10;48.80
48686;DHT22;34485;51.536;3.816;2022-09-30T10:48:57;25.20;47.60
48686;DHT22;34485;51.536;3.816;2022-09-30T10:53:55;25.00;43.80
48686;DHT22;34485;51.536;3.816;2022-09-30T10:56:40;24.90;47.60
48686;DHT22;34485;51.536;3.816;2022-09-30T11:02:03;25.20;46.70
48686;DHT22;34485;51.536;3.816;2022-09-30T11:04:36;25.10;45.80
48686;DHT22;34485;51.536;3.816;2022-09-30T11:10:06;24.60;44.80
48686;DHT22;34485;51.536;3.816;2022-09-30T11:15:32;23.70;45.30
48686;DHT22;34485;51.536;3.816;2022-09-30T11:18:06;23.20;46.90
48686;DHT22;34485;51.536;3.816;2022-09-30T11:20:51;23.00;48.50
48686;DHT22;34485;51.536;3.816;2022-09-30T11:23:44;22.70;48.10
48686;DHT22;34485;51.536;3.816;2022-09-30T11:26:38;22.40;47.40
48686;DHT22;34485;51.536;3.816;2022-09-30T11:46:10;20.50;52.30
48686;DHT22;34485;51.536;3.816;2022-09-30T11:49:03;20.30;53.70
48686;DHT22;34485;51.536;3.816;2022-09-30T11:57:26;19.70;56.10
48686;DHT22;34485;51.536;3.816;2022-09-30T12:00:06;19.70;56.30
48686;DHT22;34485;51.536;3.816;2022-09-30T12:02:46;19.70;56.50
48686;DHT22;34485;51.536;3.816;2022-09-30T12:05:23;19.80;58.50
48686;DHT22;34485;51.536;3.816;2022-09-30T12:10:24;19.80;57.10
48686;DHT22;34485;51.536;3.816;2022-09-30T12:12:59;19.80;55.60
48686;DHT22;34485;51.536;3.816;2022-09-30T12:15:26;19.70;56.60
48686;DHT22;34485;51.536;3.816;2022-09-30T12:18:02;19.60;57.70
48686;DHT22;34485;51.536;3.816;2022-09-30T12:20:55;19.50;57.00
48686;DHT22;34485;51.536;3.816;2022-09-30T12:23:26;19.40;59.70
48686;DHT22;34485;51.536;3.816;2022-09-30T12:26:00;19.50;56.50
48686;DHT22;34485;51.536;3.816;2022-09-30T12:28:28;19.30;57.70
48686;DHT22;34485;51.536;3.816;2022-09-30T12:32:18;19.30;59.50
48686;DHT22;34485;51.536;3.816;2022-09-30T12:36:59;19.40;60.60
48686;DHT22;34485;51.536;3.816;2022-09-30T12:48:14;19.20;58.50
48686;DHT22;34485;51.536;3.816;2022-09-30T12:50:48;19.30;58.60
48686;DHT22;34485;51.536;3.816;2022-09-30T12:53:21;19.30;58.40
48686;DHT22;34485;51.536;3.816;2022-09-30T12:55:49;19.30;60.20
48686;DHT22;34485;51.536;3.816;2022-09-30T12:58:37;19.40;62.60
48686;DHT22;34485;51.536;3.816;2022-09-30T13:01:30;19.40;57.30
48686;DHT22;34485;51.536;3.816;2022-09-30T13:11:38;19.30;58.20
48686;DHT22;34485;51.536;3.816;2022-09-30T13:17:20;19.40;61.80
48686;DHT22;34485;51.536;3.816;2022-09-30T13:19:50;19.50;62.10
48686;DHT22;34485;51.536;3.816;2022-09-30T13:40:56;19.20;64.70
48686;DHT22;34485;51.536;3.816;2022-09-30T13:43:31;19.20;62.90
48686;DHT22;34485;51.536;3.816;2022-09-30T13:45:58;19.20;62.00
48686;DHT22;34485;51.536;3.816;2022-09-30T13:48:34;19.20;63.40
48686;DHT22;34485;51.536;3.816;2022-09-30T13:51:06;19.20;64.30
48686;DHT22;34485;51.536;3.816;2022-09-30T13:53:39;19.10;63.60
48686;DHT22;34485;51.536;3.816;2022-09-30T14:10:09;18.90;64.60
48686;DHT22;34485;51.536;3.816;2022-09-30T14:16:13;18.70;64.10
48686;DHT22;34485;51.536;3.816;2022-09-30T14:21:40;18.70;67.70
48686;DHT22;34485;51.536;3.816;2022-09-30T14:24:14;18.70;65.30
48686;DHT22;34485;51.536;3.816;2022-09-30T14:29:38;18.50;68.50
48686;DHT22;34485;51.536;3.816;2022-09-30T14:32:15;18.60;67.60
48686;DHT22;34485;51.536;3.816;2022-09-30T14:35:03;18.50;64.90
48686;DHT22;34485;51.536;3.816;2022-09-30T14:37:34;18.30;66.80
48686;DHT22;34485;51.536;3.816;2022-09-30T14:40:01;18.30;68.50
48686;DHT22;34485;51.536;3.816;2022-09-30T14:42:35;18.30;67.90
48686;DHT22;34485;51.536;3.816;2022-09-30T14:45:04;18.30;66.50
48686;DHT22;34485;51.536;3.816;2022-09-30T14:47:36;18.20;67.10
48686;DHT22;34485;51.536;3.816;2022-09-30T14:50:08;18.10;66.20
48686;DHT22;34485;51.536;3.816;2022-09-30T14:52:40;18.10;68.00
48686;DHT22;34485;51.536;3.816;2022-09-30T14:57:43;18.10;67.40
48686;DHT22;34485;51.536;3.816;2022-09-30T15:00:19;18.00;67.40
48686;DHT22;34485;51.536;3.816;2022-09-30T15:02:45;17.90;68.40
48686;DHT22;34485;51.536;3.816;2022-09-30T15:05:12;17.90;68.50
48686;DHT22;34485;51.536;3.816;2022-09-30T15:07:40;17.90;67.50
48686;DHT22;34485;51.536;3.816;2022-09-30T15:10:13;17.80;66.60
48686;DHT22;34485;51.536;3.816;2022-09-30T15:12:41;17.70;68.00
48686;DHT22;34485;51.536;3.816;2022-09-30T15:15:26;17.80;67.70
48686;DHT22;34485;51.536;3.816;2022-09-30T15:17:52;17.70;65.20
48686;DHT22;34485;51.536;3.816;2022-09-30T15:20:33;17.70;66.60
48686;DHT22;34485;51.536;3.816;2022-09-30T15:23:04;17.60;66.10
48686;DHT22;34485;51.536;3.816;2022-09-30T15:25:32;17.60;65.90
48686;DHT22;34485;51.536;3.816;2022-09-30T15:27:57;17.60;66.80
48686;DHT22;34485;51.536;3.816;2022-09-30T15:30:26;17.50;66.80
48686;DHT22;34485;51.536;3.816;2022-09-30T15:32:58;17.40;66.70
48686;DHT22;34485;51.536;3.816;2022-09-30T15:35:24;17.40;68.50
48686;DHT22;34485;51.536;3.816;2022-09-30T15:37:51;17.30;67.60
48686;DHT22;34485;51.536;3.816;2022-09-30T15:40:19;17.10;66.70
48686;DHT22;34485;51.536;3.816;2022-09-30T15:43:06;17.00;67.10
48686;DHT22;34485;51.536;3.816;2022-09-30T15:45:35;16.90;67.80
48686;DHT22;34485;51.536;3.816;2022-09-30T15:50:58;16.80;69.40
48686;DHT22;34485;51.536;3.816;2022-09-30T15:53:44;16.60;70.00
48686;DHT22;34485;51.536;3.816;2022-09-30T15:59:04;16.60;71.80
48686;DHT22;34485;51.536;3.816;2022-09-30T16:01:47;16.50;71.10
48686;DHT22;34485;51.536;3.816;2022-09-30T16:09:18;16.50;73.10
48686;DHT22;34485;51.536;3.816;2022-09-30T16:11:55;16.50;72.70
48686;DHT22;34485;51.536;3.816;2022-09-30T16:14:42;16.50;73.20
48686;DHT22;34485;51.536;3.816;2022-09-30T16:17:16;16.40;72.40
48686;DHT22;34485;51.536;3.816;2022-09-30T16:19:56;16.40;73.60
48686;DHT22;34485;51.536;3.816;2022-09-30T16:27:35;16.20;74.90
48686;DHT22;34485;51.536;3.816;2022-09-30T16:30:01;16.20;74.70
48686;DHT22;34485;51.536;3.816;2022-09-30T16:32:30;16.10;74.90
48686;DHT22;34485;51.536;3.816;2022-09-30T16:34:57;16.00;74.70
48686;DHT22;34485;51.536;3.816;2022-09-30T16:37:23;16.00;75.50
48686;DHT22;34485;51.536;3.816;2022-09-30T16:39:49;16.00;75.40
48686;DHT22;34485;51.536;3.816;2022-09-30T16:42:15;16.00;75.20
48686;DHT22;34485;51.536;3.816;2022-09-30T16:44:41;15.90;75.10
48686;DHT22;34485;51.536;3.816;2022-09-30T16:47:13;15.90;74.40
48686;DHT22;34485;51.536;3.816;2022-09-30T16:49:39;15.90;73.30
48686;DHT22;34485;51.536;3.816;2022-09-30T16:52:07;15.90;73.90
48686;DHT22;34485;51.536;3.816;2022-09-30T16:54:33;15.90;74.30
48686;DHT22;34485;51.536;3.816;2022-09-30T16:56:58;15.80;74.20
48686;DHT22;34485;51.536;3.816;2022-09-30T16:59:24;15.70;74.50
48686;DHT22;34485;51.536;3.816;2022-09-30T17:01:49;15.70;74.40
48686;DHT22;34485;51.536;3.816;2022-09-30T17:04:15;15.70;74.40
48686;DHT22;34485;51.536;3.816;2022-09-30T17:06:40;15.60;75.10
48686;DHT22;34485;51.536;3.816;2022-09-30T17:09:06;15.60;75.80
48686;DHT22;34485;51.536;3.816;2022-09-30T17:11:35;15.50;75.60
48686;DHT22;34485;51.536;3.816;2022-09-30T17:14:02;15.50;76.60
48686;DHT22;34485;51.536;3.816;2022-09-30T17:16:28;15.40;76.60
48686;DHT22;34485;51.536;3.816;2022-09-30T17:18:54;15.30;77.30
48686;DHT22;34485;51.536;3.816;2022-09-30T17:21:22;15.30;77.20
48686;DHT22;34485;51.536;3.816;2022-09-30T17:23:47;15.30;77.30
48686;DHT22;34485;51.536;3.816;2022-09-30T17:26:14;15.20;77.90
48686;DHT22;34485;51.536;3.816;2022-09-30T17:28:39;15.20;78.00
48686;DHT22;34485;51.536;3.816;2022-09-30T17:31:07;15.20;78.70
48686;DHT22;34485;51.536;3.816;2022-09-30T17:33:34;15.20;79.30
48686;DHT22;34485;51.536;3.816;2022-09-30T17:36:03;15.20;79.60
48686;DHT22;34485;51.536;3.816;2022-09-30T17:38:31;15.10;79.90
48686;DHT22;34485;51.536;3.816;2022-09-30T17:40:57;15.10;79.70
48686;DHT22;34485;51.536;3.816;2022-09-30T17:43:42;15.10;79.70
48686;DHT22;34485;51.536;3.816;2022-09-30T17:46:07;15.10;80.00
48686;DHT22;34485;51.536;3.816;2022-09-30T17:48:33;15.10;80.20
48686;DHT22;34485;51.536;3.816;2022-09-30T17:50:59;15.10;80.50
48686;DHT22;34485;51.536;3.816;2022-09-30T17:53:25;15.10;80.50
48686;DHT22;34485;51.536;3.816;2022-09-30T17:56:20;15.00;80.50
48686;DHT22;34485;51.536;3.816;2022-09-30T17:58:47;15.00;81.30
48686;DHT22;34485;51.536;3.816;2022-09-30T18:01:16;15.00;81.30
48686;DHT22;34485;51.536;3.816;2022-09-30T18:03:42;15.00;81.90
48686;DHT22;34485;51.536;3.816;2022-09-30T18:06:08;15.00;82.00
48686;DHT22;34485;51.536;3.816;2022-09-30T18:08:33;14.90;81.80
48686;DHT22;34485;51.536;3.816;2022-09-30T18:11:00;15.00;82.20
48686;DHT22;34485;51.536;3.816;2022-09-30T18:13:26;14.90;82.40
48686;DHT22;34485;51.536;3.816;2022-09-30T18:15:52;14.90;82.80
48686;DHT22;34485;51.536;3.816;2022-09-30T18:18:18;14.90;82.70
48686;DHT22;34485;51.536;3.816;2022-09-30T18:20:45;14.90;82.50
48686;DHT22;34485;51.536;3.816;2022-09-30T18:23:12;14.90;82.00
48686;DHT22;34485;51.536;3.816;2022-09-30T18:25:38;14.90;83.60
48686;DHT22;34485;51.536;3.816;2022-09-30T18:28:06;14.90;82.40
48686;DHT22;34485;51.536;3.816;2022-09-30T18:30:34;15.00;81.90
48686;DHT22;34485;51.536;3.816;2022-09-30T18:32:59;15.00;83.10
48686;DHT22;34485;51.536;3.816;2022-09-30T18:35:25;15.00;82.00
48686;DHT22;34485;51.536;3.816;2022-09-30T18:37:51;15.00;82.00
48686;DHT22;34485;51.536;3.816;2022-09-30T18:40:19;14.90;81.80
48686;DHT22;34485;51.536;3.816;2022-09-30T18:42:46;14.90;81.40
48686;DHT22;34485;51.536;3.816;2022-09-30T18:45:13;14.90;80.60
48686;DHT22;34485;51.536;3.816;2022-09-30T18:47:40;14.90;80.90
48686;DHT22;34485;51.536;3.816;2022-09-30T18:50:08;14.90;80.60
48686;DHT22;34485;51.536;3.816;2022-09-30T18:52:34;14.90;80.60
48686;DHT22;34485;51.536;3.816;2022-09-30T18:55:00;14.90;80.60
48686;DHT22;34485;51.536;3.816;2022-09-30T18:57:26;14.90;80.60
48686;DHT22;34485;51.536;3.816;2022-09-30T18:59:51;14.90;80.60
48686;DHT22;34485;51.536;3.816;2022-09-30T19:02:17;14.90;81.00
48686;DHT22;34485;51.536;3.816;2022-09-30T19:04:45;14.90;81.00
48686;DHT22;34485;51.536;3.816;2022-09-30T19:07:13;14.90;81.40
48686;DHT22;34485;51.536;3.816;2022-09-30T19:09:38;14.90;80.30
48686;DHT22;34485;51.536;3.816;2022-09-30T19:12:05;14.90;79.90
48686;DHT22;34485;51.536;3.816;2022-09-30T19:14:31;14.80;80.20
48686;DHT22;34485;51.536;3.816;2022-09-30T19:16:58;14.80;80.50
48686;DHT22;34485;51.536;3.816;2022-09-30T19:19:24;14.80;80.10
48686;DHT22;34485;51.536;3.816;2022-09-30T19:21:50;14.80;80.20
48686;DHT22;34485;51.536;3.816;2022-09-30T19:24:15;14.80;80.10
48686;DHT22;34485;51.536;3.816;2022-09-30T19:26:41;14.80;79.30
48686;DHT22;34485;51.536;3.816;2022-09-30T19:29:10;14.90;79.50
48686;DHT22;34485;51.536;3.816;2022-09-30T19:31:36;14.80;79.50
48686;DHT22;34485;51.536;3.816;2022-09-30T19:34:02;14.80;79.60
48686;DHT22;34485;51.536;3.816;2022-09-30T19:36:28;14.80;79.70
48686;DHT22;34485;51.536;3.816;2022-09-30T19:38:57;14.80;79.60
48686;DHT22;34485;51.536;3.816;2022-09-30T19:41:27;14.80;79.30
48686;DHT22;34485;51.536;3.816;2022-09-30T19:43:56;14.80;79.90
48686;DHT22;34485;51.536;3.816;2022-09-30T19:46:23;14.80;80.50
48686;DHT22;34485;51.536;3.816;2022-09-30T19:48:49;14.80;81.10